Time;durP1;ratioP1;P1;durP2;ratioP2;P2;SDS_P1;SDS_P2;PMS_P1;PMS_P2;Temp;Humidity;BMP_temperature;BMP_pressure;BME280_temperature;BME280_humidity;BME280_pressure;Samples;Min_cycle;Max_cycle;Signal;HPM_P1;HPM_P2
2023/03/30 00:02:29;;;;;;;11.10;3.00;;;19.60;15.90;;;;;;5092458;28;20763;-80
2023/03/30 00:04:55;;;;;;;8.90;3.00;;;19.90;14.30;;;;;;5092757;28;20378;-81
2023/03/30 00:07:21;;;;;;;10.47;2.90;;;19.90;15.50;;;;;;5092162;28;20469;-81
2023/03/30 00:09:46;;;;;;;10.90;3.20;;;19.60;15.70;;;;;;5093649;28;20422;-81
2023/03/30 00:12:14;;;;;;;8.97;3.07;;;19.50;16.60;;;;;;5093497;28;20832;-81
2023/03/30 00:14:41;;;;;;;9.52;3.20;;;19.30;21.70;;;;;;5092530;28;20435;-81
2023/03/30 00:17:08;;;;;;;8.52;3.10;;;19.60;17.60;;;;;;5073772;28;20414;-81
2023/03/30 00:19:37;;;;;;;8.75;2.60;;;19.80;17.80;;;;;;5092931;28;20509;-81
2023/03/30 00:22:07;;;;;;;11.23;3.00;;;19.90;16.80;;;;;;5092427;28;20520;-81
2023/03/30 00:24:36;;;;;;;11.27;2.90;;;19.90;16.60;;;;;;5095875;28;20384;-81
2023/03/30 00:27:03;;;;;;;9.80;2.92;;;20.20;15.00;;;;;;5077886;28;20386;-81
2023/03/30 00:29:28;;;;;;;9.82;2.80;;;20.20;15.60;;;;;;5095572;28;20381;-81
2023/03/30 00:31:54;;;;;;;13.00;3.70;;;20.10;14.70;;;;;;5077490;28;20386;-81
2023/03/30 00:34:19;;;;;;;14.07;3.20;;;20.10;15.30;;;;;;5099587;28;20409;-81
2023/03/30 00:36:45;;;;;;;9.32;3.30;;;20.30;14.80;;;;;;5087488;28;20409;-80
2023/03/30 00:39:11;;;;;;;11.77;3.20;;;20.30;15.20;;;;;;5084085;28;20382;-80
2023/03/30 00:41:37;;;;;;;13.30;3.08;;;20.50;14.70;;;;;;5104870;28;20374;-81
2023/03/30 00:44:28;;;;;;;9.77;3.45;;;20.30;16.90;;;;;;5104219;28;20504;-81
2023/03/30 00:46:54;;;;;;;11.65;3.42;;;20.50;16.60;;;;;;5098369;28;20394;-81
2023/03/30 00:49:20;;;;;;;11.68;3.20;;;20.50;15.50;;;;;;5078783;28;20736;-81
2023/03/30 00:51:49;;;;;;;11.30;3.30;;;20.50;18.10;;;;;;5078613;28;20382;-81
2023/03/30 00:54:17;;;;;;;9.57;2.70;;;20.30;18.90;;;;;;5079216;28;20883;-80
2023/03/30 00:56:42;;;;;;;8.85;3.10;;;20.10;26.10;;;;;;5098722;28;20389;-82
2023/03/30 00:59:09;;;;;;;7.50;3.10;;;19.90;44.00;;;;;;5096511;28;20740;-81
2023/03/30 01:01:37;;;;;;;11.68;3.20;;;19.60;64.70;;;;;;5096419;28;20744;-81
2023/03/30 01:04:04;;;;;;;8.13;3.17;;;19.40;97.90;;;;;;5099283;28;20391;-80
2023/03/30 01:06:31;;;;;;;10.50;3.20;;;19.00;99.90;;;;;;5102816;28;20440;-81
2023/03/30 01:08:57;;;;;;;10.50;3.10;;;18.50;1.00;;;;;;5101271;28;20467;-81
2023/03/30 01:11:25;;;;;;;11.35;3.67;;;18.40;1.00;;;;;;5087465;28;20389;-80
2023/03/30 01:13:57;;;;;;;12.60;4.07;;;18.40;1.00;;;;;;5121498;28;20382;-80
2023/03/30 01:16:26;;;;;;;7.90;3.05;;;18.30;99.90;;;;;;5104975;28;20794;-80
2023/03/30 01:19:00;;;;;;;14.18;3.97;;;17.70;1.00;;;;;;5086946;28;20390;-79
2023/03/30 01:21:38;;;;;;;11.70;3.60;;;17.60;1.00;;;;;;5107291;28;20382;-80
2023/03/30 01:24:26;;;;;;;9.52;3.47;;;17.10;99.90;;;;;;5096518;28;20401;-80
2023/03/30 01:27:00;;;;;;;9.93;3.67;;;16.70;1.00;;;;;;5078053;28;20887;-80
2023/03/30 01:29:40;;;;;;;13.02;3.80;;;16.30;1.00;;;;;;5096749;28;20382;-80
2023/03/30 01:32:15;;;;;;;9.13;3.35;;;16.30;1.00;;;;;;5099877;28;20386;-81
2023/03/30 01:34:57;;;;;;;12.10;3.57;;;16.10;99.90;;;;;;5086860;28;20382;-80
2023/03/30 01:37:28;;;;;;;10.63;3.50;;;15.80;99.90;;;;;;5088100;28;20406;-81
2023/03/30 01:40:08;;;;;;;14.65;4.45;;;15.50;99.90;;;;;;5089434;28;20409;-81
2023/03/30 01:42:37;;;;;;;12.40;3.70;;;15.30;99.90;;;;;;5085744;28;20382;-81
2023/03/30 01:45:20;;;;;;;17.25;3.60;;;15.00;99.90;;;;;;5085225;28;20386;-80
2023/03/30 01:48:00;;;;;;;12.85;4.05;;;14.90;99.90;;;;;;5104401;28;20379;-81
2023/03/30 01:50:38;;;;;;;12.10;3.33;;;14.90;99.90;;;;;;5102136;28;20378;-81
2023/03/30 01:53:12;;;;;;;12.85;4.35;;;14.80;99.90;;;;;;5105726;28;20407;-81
2023/03/30 01:55:45;;;;;;;16.52;4.60;;;14.70;99.90;;;;;;5104738;28;20389;-81
2023/03/30 01:59:05;;;;;;;10.13;3.58;;;14.60;99.90;;;;;;5086440;28;20409;-81
2023/03/30 02:01:35;;;;;;;10.82;3.80;;;14.50;99.90;;;;;;5061344;28;20382;-81
2023/03/30 02:04:03;;;;;;;10.30;4.00;;;14.40;99.90;;;;;;5093962;28;20378;-81
2023/03/30 02:06:38;;;;;;;9.70;3.35;;;14.40;99.90;;;;;;5075848;28;20472;-81
2023/03/30 02:09:07;;;;;;;12.90;4.20;;;14.40;99.90;;;;;;5094444;28;20447;-81
2023/03/30 02:11:34;;;;;;;10.70;3.80;;;14.40;99.90;;;;;;5075812;28;20910;-81
2023/03/30 02:14:03;;;;;;;10.25;3.95;;;14.40;99.90;;;;;;5094345;28;20390;-81
2023/03/30 02:16:36;;;;;;;12.88;3.97;;;14.30;99.90;;;;;;5093573;28;20484;-81
2023/03/30 02:19:03;;;;;;;9.05;3.28;;;14.20;99.90;;;;;;5093805;28;20462;-81
2023/03/30 02:21:29;;;;;;;10.23;4.30;;;14.20;99.90;;;;;;5093521;28;20736;-81
2023/03/30 02:23:56;;;;;;;10.27;3.90;;;14.10;99.90;;;;;;5097193;28;20374;-81
2023/03/30 02:26:22;;;;;;;11.48;3.60;;;14.10;99.90;;;;;;5084502;28;20884;-81
2023/03/30 02:28:49;;;;;;;10.40;3.45;;;14.10;99.90;;;;;;5097370;28;20473;-81
2023/03/30 02:31:15;;;;;;;11.57;3.47;;;14.20;99.90;;;;;;5076998;28;20392;-81
2023/03/30 02:34:15;;;;;;;14.43;4.00;;;14.10;99.90;;;;;;5075565;28;20378;-81
2023/03/30 02:36:55;;;;;;;11.30;3.58;;;14.10;99.90;;;;;;5092042;28;20462;-80
2023/03/30 02:39:40;;;;;;;11.52;3.47;;;14.00;99.90;;;;;;5093313;28;20378;-80
2023/03/30 02:42:27;;;;;;;16.48;4.70;;;14.00;99.90;;;;;;5093594;28;20379;-80
2023/03/30 02:45:45;;;;;;;8.27;3.30;;;13.90;99.90;;;;;;5094570;28;20457;-81
2023/03/30 02:48:41;;;;;;;13.38;3.50;;;13.90;99.90;;;;;;5087958;28;20490;-79
2023/03/30 02:51:40;;;;;;;7.10;2.90;;;13.90;99.90;;;;;;5089718;28;20386;-80
2023/03/30 02:54:14;;;;;;;11.50;4.10;;;13.90;99.90;;;;;;5089762;28;20727;-80
2023/03/30 02:56:53;;;;;;;11.95;4.38;;;13.90;99.90;;;;;;5096265;28;20377;-80
2023/03/30 02:59:23;;;;;;;8.57;3.50;;;13.80;99.90;;;;;;5093471;28;20387;-80
2023/03/30 03:02:05;;;;;;;9.57;3.40;;;13.90;99.90;;;;;;5074963;28;20439;-80
2023/03/30 03:04:33;;;;;;;12.15;3.95;;;13.90;99.90;;;;;;5092896;28;20720;-80
2023/03/30 03:07:01;;;;;;;9.63;3.45;;;13.90;99.90;;;;;;5074126;28;20411;-81
2023/03/30 03:09:27;;;;;;;15.07;4.28;;;13.90;99.90;;;;;;5075026;28;20390;-80
2023/03/30 03:11:53;;;;;;;12.10;4.00;;;13.90;99.90;;;;;;5092752;28;20404;-80
2023/03/30 03:14:19;;;;;;;8.70;3.70;;;13.90;99.90;;;;;;5075537;28;20892;-79
2023/03/30 03:16:45;;;;;;;11.85;3.60;;;13.90;99.90;;;;;;5076948;28;20386;-80
2023/03/30 03:19:11;;;;;;;8.23;3.20;;;14.00;99.90;;;;;;5093321;28;20422;-80
2023/03/30 03:21:36;;;;;;;9.73;3.67;;;14.00;99.90;;;;;;5075435;28;20444;-80
2023/03/30 03:24:03;;;;;;;8.10;3.10;;;14.00;99.90;;;;;;5092781;28;20370;-80
2023/03/30 03:26:28;;;;;;;11.77;3.65;;;14.00;99.90;;;;;;5091818;28;20381;-80
2023/03/30 03:28:54;;;;;;;10.73;3.90;;;13.90;99.90;;;;;;5092404;28;20740;-80
2023/03/30 03:31:20;;;;;;;12.15;4.43;;;14.00;99.90;;;;;;5077646;28;20390;-80
2023/03/30 03:33:46;;;;;;;6.37;3.60;;;14.00;99.90;;;;;;5107415;28;20463;-80
2023/03/30 03:36:11;;;;;;;11.77;3.40;;;14.10;99.90;;;;;;5077290;28;20400;-80
2023/03/30 03:38:38;;;;;;;13.18;3.80;;;14.10;99.90;;;;;;5074616;28;20416;-80
2023/03/30 03:41:03;;;;;;;10.07;3.65;;;14.20;99.90;;;;;;5093257;28;20431;-80
2023/03/30 03:43:29;;;;;;;13.15;3.80;;;14.10;99.90;;;;;;5074566;28;20457;-80
2023/03/30 03:45:55;;;;;;;10.25;3.20;;;14.00;99.90;;;;;;5092883;28;20378;-80
2023/03/30 03:48:22;;;;;;;9.75;3.40;;;14.00;99.90;;;;;;5074536;28;20425;-80
2023/03/30 03:50:53;;;;;;;12.75;4.32;;;14.10;99.90;;;;;;5092473;28;20389;-81
2023/03/30 03:53:18;;;;;;;9.65;3.70;;;14.00;99.90;;;;;;5092808;28;20412;-80
2023/03/30 03:55:45;;;;;;;8.23;3.20;;;14.00;99.90;;;;;;5092774;28;20378;-80
2023/03/30 03:58:11;;;;;;;12.80;4.20;;;14.00;99.90;;;;;;5093394;28;20955;-80
2023/03/30 04:00:36;;;;;;;10.50;3.42;;;14.10;99.90;;;;;;5096864;28;20417;-80
2023/03/30 04:03:03;;;;;;;12.13;3.20;;;14.10;99.90;;;;;;5077671;28;20401;-80
2023/03/30 04:05:29;;;;;;;11.50;3.40;;;14.10;99.90;;;;;;5077728;28;20737;-80
2023/03/30 04:07:55;;;;;;;15.98;4.00;;;14.20;99.90;;;;;;5097174;28;20393;-81
2023/03/30 04:10:22;;;;;;;9.35;3.15;;;14.20;99.90;;;;;;5098542;28;20948;-81
2023/03/30 04:12:47;;;;;;;12.15;3.80;;;14.20;99.90;;;;;;5101515;28;20451;-81
2023/03/30 04:15:13;;;;;;;12.27;3.20;;;14.20;99.90;;;;;;5095951;28;20382;-81
2023/03/30 04:17:38;;;;;;;15.15;4.10;;;14.30;99.90;;;;;;5094926;28;20398;-81
2023/03/30 04:20:10;;;;;;;10.50;4.23;;;14.30;99.90;;;;;;5095569;28;20378;-81
2023/03/30 04:22:40;;;;;;;9.10;3.70;;;14.40;99.90;;;;;;5097169;28;20424;-81
2023/03/30 04:25:07;;;;;;;13.53;3.83;;;14.30;99.90;;;;;;5095904;28;20420;-81
2023/03/30 04:27:33;;;;;;;9.77;3.05;;;14.20;99.90;;;;;;5077132;28;20389;-81
2023/03/30 04:30:00;;;;;;;10.00;3.33;;;14.20;99.90;;;;;;5077236;28;20390;-80
2023/03/30 04:32:26;;;;;;;9.60;3.60;;;14.30;99.90;;;;;;5077333;28;20489;-81
2023/03/30 04:34:55;;;;;;;10.65;4.03;;;14.30;99.90;;;;;;5095188;28;20413;-81
2023/03/30 04:37:29;;;;;;;8.23;2.95;;;14.30;99.90;;;;;;5076891;28;20433;-81
2023/03/30 04:40:01;;;;;;;9.45;3.35;;;14.30;99.90;;;;;;5079165;28;20421;-81
2023/03/30 04:42:33;;;;;;;5.05;3.40;;;14.40;99.90;;;;;;5106437;28;20453;-81
2023/03/30 04:45:03;;;;;;;13.25;4.00;;;14.40;99.90;;;;;;5087872;28;20990;-81
2023/03/30 04:47:29;;;;;;;12.60;3.83;;;14.50;99.90;;;;;;5104831;28;20810;-81
2023/03/30 04:49:55;;;;;;;12.35;3.85;;;14.50;99.90;;;;;;5099817;28;20466;-81
2023/03/30 04:52:21;;;;;;;11.15;3.50;;;14.60;99.90;;;;;;5077070;28;20751;-81
2023/03/30 04:54:47;;;;;;;12.50;4.55;;;14.60;99.90;;;;;;5096814;28;20794;-81
2023/03/30 04:57:14;;;;;;;10.80;3.38;;;14.60;99.90;;;;;;5078772;28;20398;-81
2023/03/30 04:59:41;;;;;;;10.23;3.33;;;14.60;99.90;;;;;;5077272;28;20418;-81
2023/03/30 05:02:07;;;;;;;9.00;3.40;;;14.60;99.90;;;;;;5099260;28;20370;-81
2023/03/30 05:04:33;;;;;;;11.25;4.10;;;14.60;99.90;;;;;;5089528;28;20375;-81
2023/03/30 05:06:59;;;;;;;10.27;3.33;;;14.70;99.90;;;;;;5099708;28;20386;-81
2023/03/30 05:09:24;;;;;;;7.73;3.50;;;14.60;99.90;;;;;;5096972;28;20386;-81
2023/03/30 05:11:50;;;;;;;14.43;3.70;;;14.60;99.90;;;;;;5077149;28;20389;-81
2023/03/30 05:14:15;;;;;;;11.05;3.95;;;14.60;99.90;;;;;;5096626;28;20818;-81
2023/03/30 05:16:41;;;;;;;12.48;4.00;;;14.60;99.90;;;;;;5076657;28;20386;-81
2023/03/30 05:19:07;;;;;;;12.63;3.60;;;14.60;99.90;;;;;;5077844;28;20386;-81
2023/03/30 05:21:32;;;;;;;10.07;3.60;;;14.40;99.90;;;;;;5096169;28;20382;-81
2023/03/30 05:23:58;;;;;;;13.20;4.68;;;14.50;99.90;;;;;;5095723;28;20378;-81
2023/03/30 05:26:25;;;;;;;8.23;3.33;;;14.50;99.90;;;;;;5093714;28;20468;-81
2023/03/30 05:28:51;;;;;;;11.20;4.78;;;14.40;99.90;;;;;;5080934;28;20389;-81
2023/03/30 05:31:18;;;;;;;12.00;3.70;;;14.40;99.90;;;;;;5074515;28;20851;-81
2023/03/30 05:33:43;;;;;;;13.75;4.20;;;14.40;99.90;;;;;;5073403;28;20418;-81
2023/03/30 05:36:09;;;;;;;12.03;4.30;;;14.40;99.90;;;;;;5079979;28;20378;-81
2023/03/30 05:38:35;;;;;;;12.33;4.40;;;14.30;99.90;;;;;;5094613;28;20806;-81
2023/03/30 05:41:01;;;;;;;11.80;4.13;;;14.30;99.90;;;;;;5089477;28;20763;-80
2023/03/30 05:43:27;;;;;;;10.87;3.70;;;14.20;99.90;;;;;;5095077;28;20381;-81
2023/03/30 05:45:52;;;;;;;10.07;3.37;;;14.20;99.90;;;;;;5088477;28;20867;-81
2023/03/30 05:48:18;;;;;;;10.20;3.50;;;15.50;99.90;;;;;;5093417;28;20412;-81
2023/03/30 05:50:46;;;;;;;11.23;3.80;;;15.40;1.00;;;;;;5093586;28;20389;-81
2023/03/30 05:53:11;;;;;;;12.00;4.20;;;15.00;99.90;;;;;;5094063;28;20393;-81
2023/03/30 05:55:37;;;;;;;10.10;3.70;;;14.90;1.00;;;;;;5091596;28;20958;-80
2023/03/30 05:58:03;;;;;;;12.37;4.10;;;14.80;99.90;;;;;;5093419;28;20414;-81
2023/03/30 06:00:32;;;;;;;7.23;3.27;;;14.60;99.90;;;;;;5081004;28;20459;-81
2023/03/30 06:02:58;;;;;;;9.88;3.90;;;14.60;99.90;;;;;;5081089;28;20445;-81
2023/03/30 06:05:24;;;;;;;11.23;3.57;;;14.40;99.90;;;;;;5092538;28;20412;-80
2023/03/30 06:07:49;;;;;;;12.17;3.43;;;14.40;99.90;;;;;;5074442;28;20827;-81
2023/03/30 06:10:15;;;;;;;13.73;4.33;;;14.70;99.90;;;;;;5095809;28;20401;-80
2023/03/30 06:12:41;;;;;;;14.88;3.78;;;14.80;99.90;;;;;;5083163;28;20382;-81
2023/03/30 06:15:07;;;;;;;11.50;3.80;;;15.10;99.90;;;;;;5102450;28;20397;-81
2023/03/30 06:17:34;;;;;;;10.07;3.15;;;15.10;1.00;;;;;;5091564;28;20398;-81
2023/03/30 06:20:00;;;;;;;5.07;2.30;;;15.90;99.90;;;;;;5094689;28;20814;-81
2023/03/30 06:22:26;;;;;;;8.52;3.40;;;16.70;1.00;;;;;;5076471;28;20394;-81
2023/03/30 06:24:51;;;;;;;11.70;3.30;;;17.00;99.90;;;;;;5103753;28;20391;-81
2023/03/30 06:27:17;;;;;;;10.60;2.90;;;16.90;99.90;;;;;;5070848;28;20949;-78
2023/03/30 06:29:44;;;;;;;9.02;3.25;;;17.10;99.90;;;;;;5087099;28;20392;-80
2023/03/30 06:32:09;;;;;;;6.97;2.80;;;17.20;99.90;;;;;;5062613;28;20880;-80
2023/03/30 06:34:35;;;;;;;10.70;3.00;;;17.30;1.00;;;;;;5103247;28;20461;-80
2023/03/30 06:37:01;;;;;;;9.48;3.38;;;17.30;99.90;;;;;;5091667;28;20462;-80
2023/03/30 06:39:26;;;;;;;11.60;3.53;;;17.00;99.90;;;;;;5086900;28;20412;-80
2023/03/30 06:41:52;;;;;;;10.40;3.30;;;17.00;99.90;;;;;;5086237;28;20386;-80
2023/03/30 06:44:18;;;;;;;13.87;3.37;;;16.80;99.90;;;;;;5085603;28;20372;-80
2023/03/30 06:46:44;;;;;;;12.73;3.63;;;16.70;99.90;;;;;;5097716;28;20374;-80
2023/03/30 06:49:11;;;;;;;7.47;2.80;;;17.00;1.00;;;;;;5076087;28;20445;-80
2023/03/30 06:51:36;;;;;;;11.00;2.92;;;17.00;1.00;;;;;;5075391;28;20456;-80
2023/03/30 06:54:02;;;;;;;10.88;3.20;;;16.90;12.50;;;;;;5073520;28;20470;-79
2023/03/30 06:56:28;;;;;;;10.02;3.53;;;16.90;1.00;;;;;;5073916;28;20478;-80
2023/03/30 06:58:53;;;;;;;8.95;2.70;;;16.90;1.00;;;;;;5073770;28;20407;-79
2023/03/30 07:01:19;;;;;;;11.57;3.17;;;17.00;1.00;;;;;;5086564;28;20385;-80
2023/03/30 07:03:44;;;;;;;5.20;2.70;;;17.00;1.00;;;;;;5074478;28;20378;-80
2023/03/30 07:06:11;;;;;;;15.70;3.63;;;16.90;1.00;;;;;;5074833;28;20877;-80
2023/03/30 07:08:36;;;;;;;9.23;3.08;;;16.90;1.00;;;;;;5074686;28;20909;-79
2023/03/30 07:11:03;;;;;;;8.77;2.78;;;16.70;99.90;;;;;;5074080;28;20386;-80
2023/03/30 07:13:29;;;;;;;9.55;3.35;;;16.70;1.00;;;;;;5093239;28;20900;-80
2023/03/30 07:15:55;;;;;;;7.07;3.50;;;16.70;1.00;;;;;;5073832;28;20394;-80
2023/03/30 07:18:21;;;;;;;8.77;3.27;;;16.40;16.40;;;;;;5074300;28;20489;-80
2023/03/30 07:20:46;;;;;;;11.30;3.90;;;16.40;99.90;;;;;;5093449;28;20421;-80
2023/03/30 07:23:12;;;;;;;11.50;3.45;;;16.30;99.90;;;;;;5075620;28;20383;-80
2023/03/30 07:25:38;;;;;;;11.60;3.50;;;16.10;99.90;;;;;;5092093;28;20382;-80
2023/03/30 07:28:07;;;;;;;9.48;3.45;;;16.00;99.90;;;;;;5093150;28;20576;-80
2023/03/30 07:30:33;;;;;;;11.45;3.50;;;15.90;1.00;;;;;;5075400;28;20888;-81
2023/03/30 07:32:59;;;;;;;10.80;3.70;;;15.80;99.90;;;;;;5092588;28;20479;-78
2023/03/30 07:35:25;;;;;;;11.40;3.23;;;15.70;99.90;;;;;;5095873;28;20384;-78
2023/03/30 07:37:51;;;;;;;9.55;4.20;;;15.50;99.90;;;;;;5187885;22;20440;-84
2023/03/30 07:40:21;;;;;;;8.38;3.60;;;16.20;99.90;;;;;;5088685;28;20390;-85
2023/03/30 07:42:47;;;;;;;9.97;3.20;;;15.70;17.50;;;;;;5114757;28;20441;-85
2023/03/30 07:45:13;;;;;;;8.70;3.60;;;15.70;99.90;;;;;;5098904;28;20381;-85
2023/03/30 07:47:39;;;;;;;7.60;3.25;;;15.60;99.90;;;;;;5093863;28;20411;-85
2023/03/30 07:50:05;;;;;;;5.18;2.90;;;15.60;1.00;;;;;;5083256;28;20395;-86
2023/03/30 07:52:31;;;;;;;6.50;2.97;;;15.70;1.00;;;;;;5096165;28;20392;-86
2023/03/30 07:54:57;;;;;;;7.67;3.00;;;15.80;99.90;;;;;;5080421;28;20406;-85
2023/03/30 07:57:23;;;;;;;7.00;2.80;;;15.90;1.00;;;;;;5066908;28;20400;-82
2023/03/30 07:59:48;;;;;;;8.80;2.70;;;15.90;99.90;;;;;;5062553;28;20734;-82
2023/03/30 08:02:15;;;;;;;6.85;3.30;;;15.80;1.00;;;;;;5066985;28;20391;-85
2023/03/30 08:04:44;;;;;;;7.55;3.10;;;15.80;43.00;;;;;;5060442;28;20391;-87
2023/03/30 08:07:18;;;;;;;6.65;3.17;;;15.80;1.00;;;;;;5059432;28;20392;-85
2023/03/30 08:09:44;;;;;;;9.63;3.70;;;16.20;1.00;;;;;;5062363;28;20477;-85
2023/03/30 08:12:10;;;;;;;6.53;3.67;;;15.70;97.60;;;;;;5076759;28;20406;-82
2023/03/30 08:14:39;;;;;;;10.05;3.80;;;15.60;99.90;;;;;;5077043;28;20379;-83
2023/03/30 08:17:08;;;;;;;10.68;5.30;;;15.00;1.00;;;;;;5061310;28;20789;-85
2023/03/30 08:19:33;;;;;;;7.90;4.70;;;13.90;99.90;;;;;;5059503;28;20387;-84
2023/03/30 08:22:00;;;;;;;9.98;5.40;;;13.60;99.90;;;;;;5075235;28;20437;-85
2023/03/30 08:24:26;;;;;;;10.70;5.25;;;13.30;99.90;;;;;;5058458;28;20917;-85
2023/03/30 08:26:55;;;;;;;10.88;5.38;;;13.20;99.90;;;;;;5060563;28;20408;-85
2023/03/30 08:29:20;;;;;;;11.07;5.60;;;13.10;99.90;;;;;;5062852;28;20916;-85
2023/03/30 08:31:46;;;;;;;13.57;6.18;;;13.00;99.90;;;;;;5080104;28;20380;-84
2023/03/30 08:34:14;;;;;;;11.05;5.60;;;12.90;99.90;;;;;;5080638;28;20390;-85
2023/03/30 08:36:40;;;;;;;13.45;5.50;;;12.90;99.90;;;;;;5079133;28;20380;-84
2023/03/30 08:39:05;;;;;;;11.63;6.30;;;12.90;99.90;;;;;;5060151;28;20416;-83
2023/03/30 08:41:47;;;;;;;13.70;6.50;;;12.70;99.90;;;;;;5074445;28;20380;-84
2023/03/30 08:44:34;;;;;;;10.70;7.10;;;12.50;99.90;;;;;;5056831;28;20383;-84
2023/03/30 08:47:03;;;;;;;10.75;6.75;;;12.60;99.90;;;;;;5059381;28;20384;-84
2023/03/30 08:49:36;;;;;;;11.20;6.60;;;12.50;99.90;;;;;;5060213;28;20882;-84
2023/03/30 08:52:03;;;;;;;13.40;7.17;;;12.60;99.90;;;;;;5070660;28;20380;-84
2023/03/30 08:54:31;;;;;;;12.30;6.30;;;12.50;99.90;;;;;;5073381;28;20383;-85
2023/03/30 08:57:26;;;;;;;14.75;6.90;;;12.50;99.90;;;;;;5073239;28;20376;-82
2023/03/30 09:00:19;;;;;;;12.98;7.13;;;12.50;99.90;;;;;;5089102;28;20384;-85
2023/03/30 09:02:50;;;;;;;12.73;6.30;;;12.50;99.90;;;;;;5066169;28;20536;-84
2023/03/30 09:05:25;;;;;;;7.55;6.20;;;12.60;99.90;;;;;;5060346;28;20444;-84
2023/03/30 09:08:00;;;;;;;9.48;6.35;;;12.60;99.90;;;;;;5080218;28;20468;-85
2023/03/30 09:10:28;;;;;;;11.35;6.57;;;12.50;99.90;;;;;;5062363;28;20399;-85
2023/03/30 09:12:58;;;;;;;10.50;6.40;;;12.50;99.90;;;;;;5080520;28;20380;-85
2023/03/30 09:15:48;;;;;;;7.90;5.20;;;12.50;99.90;;;;;;5090792;28;20451;-85
2023/03/30 09:18:17;;;;;;;9.57;5.68;;;12.80;99.90;;;;;;5058701;28;20797;-86
2023/03/30 09:20:45;;;;;;;8.73;4.85;;;12.80;99.90;;;;;;5064344;28;20394;-86
2023/03/30 09:23:13;;;;;;;7.93;5.10;;;12.90;99.90;;;;;;5059324;28;20405;-85
2023/03/30 09:25:57;;;;;;;9.20;5.38;;;12.90;99.90;;;;;;5058713;28;20384;-84
2023/03/30 09:28:37;;;;;;;9.52;5.32;;;12.90;99.90;;;;;;5060502;28;20425;-84
2023/03/30 09:31:03;;;;;;;10.70;5.00;;;13.10;99.90;;;;;;5059845;28;20392;-85
2023/03/30 09:33:56;;;;;;;7.93;4.60;;;13.10;99.90;;;;;;5078200;28;20380;-83
2023/03/30 09:36:31;;;;;;;8.90;5.05;;;13.00;99.90;;;;;;5078053;28;20375;-84
2023/03/30 09:38:56;;;;;;;8.45;4.95;;;13.00;99.90;;;;;;5059141;28;20414;-85
2023/03/30 09:41:53;;;;;;;7.00;5.03;;;13.10;99.90;;;;;;5082271;28;20455;-84
2023/03/30 09:44:33;;;;;;;8.20;4.90;;;13.00;99.90;;;;;;5058301;28;20391;-85
2023/03/30 09:46:59;;;;;;;7.40;4.35;;;13.00;99.90;;;;;;5055720;28;20523;-85
2023/03/30 09:49:36;;;;;;;10.05;4.35;;;13.10;99.90;;;;;;5056230;28;20388;-85
2023/03/30 09:52:05;;;;;;;5.35;3.70;;;13.20;99.90;;;;;;5059530;28;20376;-84
2023/03/30 09:54:40;;;;;;;7.40;3.85;;;13.40;99.90;;;;;;5061724;28;20506;-85
2023/03/30 09:57:25;;;;;;;5.93;3.80;;;13.40;99.90;;;;;;5077350;28;20382;-85
2023/03/30 09:59:54;;;;;;;5.65;3.58;;;13.40;99.90;;;;;;5058019;28;20423;-85
2023/03/30 10:02:21;;;;;;;6.50;3.63;;;13.30;99.90;;;;;;5073319;28;20384;-85
2023/03/30 10:04:52;;;;;;;4.93;3.72;;;13.50;99.90;;;;;;5073806;28;20444;-84
2023/03/30 10:07:42;;;;;;;9.05;4.50;;;13.60;99.90;;;;;;5073364;28;20379;-86
2023/03/30 10:10:20;;;;;;;8.95;3.40;;;13.60;99.90;;;;;;5068574;28;20390;-86
2023/03/30 10:12:48;;;;;;;10.38;4.13;;;13.60;99.90;;;;;;5053186;28;20393;-86
2023/03/30 10:15:19;;;;;;;8.47;3.77;;;13.60;99.90;;;;;;5052778;28;20386;-85
2023/03/30 10:17:47;;;;;;;6.65;3.80;;;13.50;99.90;;;;;;5052127;28;20481;-86
2023/03/30 10:20:23;;;;;;;6.05;3.40;;;13.60;99.90;;;;;;5034409;28;20400;-85
2023/03/30 10:23:00;;;;;;;6.05;3.38;;;13.60;99.90;;;;;;5035521;28;20378;-86
2023/03/30 10:25:28;;;;;;;7.68;3.40;;;13.50;99.90;;;;;;5053929;28;20382;-86
2023/03/30 10:27:56;;;;;;;6.35;3.80;;;13.70;99.90;;;;;;5036280;28;20819;-86
2023/03/30 10:30:25;;;;;;;5.40;3.22;;;13.70;99.90;;;;;;5039191;28;20386;-85
2023/03/30 10:32:54;;;;;;;6.40;3.55;;;13.70;99.90;;;;;;5036318;28;20440;-85
2023/03/30 10:35:26;;;;;;;4.03;3.13;;;13.60;99.90;;;;;;5035829;28;20458;-85
2023/03/30 10:37:55;;;;;;;8.10;3.35;;;13.70;99.90;;;;;;5059985;28;20485;-85
2023/03/30 10:40:32;;;;;;;8.15;3.20;;;13.80;99.90;;;;;;5076252;28;20403;-85
2023/03/30 10:42:59;;;;;;;8.85;3.63;;;13.80;88.30;;;;;;5057780;28;20441;-87
2023/03/30 10:45:33;;;;;;;6.90;3.43;;;13.90;66.90;;;;;;5074736;28;20445;-85
2023/03/30 10:48:17;;;;;;;6.38;3.78;;;13.90;99.90;;;;;;5074057;28;20379;-85
2023/03/30 10:51:05;;;;;;;11.02;3.35;;;13.90;99.90;;;;;;5057176;28;20384;-85
2023/03/30 10:54:04;;;;;;;7.50;4.20;;;13.80;99.90;;;;;;5078220;28;20735;-83
2023/03/30 10:56:50;;;;;;;7.05;3.67;;;13.90;99.90;;;;;;5075380;28;20391;-84
2023/03/30 10:59:28;;;;;;;6.38;3.70;;;13.90;99.90;;;;;;5063648;28;20382;-83
2023/03/30 11:02:24;;;;;;;6.20;3.80;;;13.80;99.90;;;;;;5066047;28;20945;-85
2023/03/30 11:05:24;;;;;;;5.75;3.67;;;13.80;99.90;;;;;;5076045;28;20407;-86
2023/03/30 11:07:59;;;;;;;7.35;4.15;;;13.70;99.90;;;;;;5075409;28;20407;-85
2023/03/30 11:10:55;;;;;;;6.88;3.42;;;13.60;99.90;;;;;;5051380;28;21024;-85
2023/03/30 11:13:22;;;;;;;8.75;3.83;;;13.50;99.90;;;;;;5055200;28;20929;-85
2023/03/30 11:16:17;;;;;;;7.82;4.15;;;13.60;99.90;;;;;;5056790;28;20394;-85
2023/03/30 11:18:53;;;;;;;10.60;3.83;;;13.50;99.90;;;;;;5028096;28;20483;-86
2023/03/30 11:21:24;;;;;;;6.10;3.80;;;13.40;99.90;;;;;;5041159;28;20413;-85
2023/03/30 11:24:00;;;;;;;6.45;3.83;;;13.30;99.90;;;;;;5039093;28;20811;-85
2023/03/30 11:26:39;;;;;;;6.57;4.30;;;13.20;99.90;;;;;;5040330;28;20399;-86
2023/03/30 11:29:31;;;;;;;8.00;4.20;;;13.20;99.90;;;;;;5044163;28;20393;-86
2023/03/30 11:32:23;;;;;;;5.03;3.95;;;13.10;99.90;;;;;;5056404;28;20856;-84
2023/03/30 11:34:55;;;;;;;7.40;3.90;;;13.00;99.90;;;;;;5037721;28;20448;-86
2023/03/30 11:37:29;;;;;;;6.30;4.00;;;13.00;99.90;;;;;;5035863;28;20513;-85
2023/03/30 11:40:18;;;;;;;5.82;3.95;;;13.00;99.90;;;;;;5037971;28;20392;-86
2023/03/30 11:42:46;;;;;;;9.05;3.90;;;13.10;99.90;;;;;;5055259;28;20382;-84
2023/03/30 11:45:30;;;;;;;7.00;3.42;;;13.20;99.90;;;;;;5036125;28;20737;-85
2023/03/30 11:48:24;;;;;;;9.00;4.00;;;13.40;99.90;;;;;;5061312;28;20473;-85
2023/03/30 11:51:04;;;;;;;6.07;3.53;;;13.40;99.90;;;;;;5050934;28;20419;-86
2023/03/30 11:53:55;;;;;;;6.18;3.10;;;13.50;99.90;;;;;;5073869;28;20384;-85
2023/03/30 11:56:45;;;;;;;6.50;3.40;;;13.60;99.90;;;;;;5055852;28;20419;-85
2023/03/30 11:59:29;;;;;;;6.15;3.33;;;13.60;99.90;;;;;;5073920;28;20431;-86
2023/03/30 12:02:13;;;;;;;4.97;2.90;;;13.80;99.90;;;;;;5054013;28;20383;-85
2023/03/30 12:04:53;;;;;;;4.03;3.03;;;14.00;99.90;;;;;;5062149;28;20402;-84
2023/03/30 12:07:29;;;;;;;6.50;3.33;;;14.20;99.90;;;;;;5059870;28;20403;-84
2023/03/30 12:10:00;;;;;;;7.07;3.30;;;14.30;23.10;;;;;;5076798;28;20387;-86
2023/03/30 12:12:38;;;;;;;5.30;2.97;;;14.60;24.30;;;;;;5043880;28;20748;-86
2023/03/30 12:15:21;;;;;;;3.80;2.80;;;15.10;1.00;;;;;;5057962;28;20847;-86
2023/03/30 12:17:59;;;;;;;6.32;2.67;;;16.20;99.90;;;;;;5055801;28;20413;-86
2023/03/30 12:20:36;;;;;;;6.90;2.83;;;16.20;99.90;;;;;;5061211;28;20381;-86
2023/03/30 12:23:11;;;;;;;7.28;2.72;;;16.20;1.00;;;;;;5054877;28;20475;-86
2023/03/30 12:26:02;;;;;;;6.27;2.77;;;16.10;1.00;;;;;;5071258;28;20387;-86
2023/03/30 12:28:58;;;;;;;4.50;2.47;;;15.70;99.90;;;;;;5060517;28;20395;-87
2023/03/30 12:31:46;;;;;;;10.40;2.80;;;15.40;99.90;;;;;;5064463;28;20406;-88
2023/03/30 12:34:11;;;;;;;4.85;2.55;;;15.00;99.90;;;;;;5055386;28;20429;-87
2023/03/30 12:36:45;;;;;;;5.73;2.60;;;15.00;1.00;;;;;;5074942;28;20384;-87
2023/03/30 12:39:30;;;;;;;3.80;2.50;;;14.90;1.00;;;;;;5062493;28;20503;-87
2023/03/30 12:42:05;;;;;;;5.18;2.40;;;14.80;1.00;;;;;;5087181;28;20371;-87
2023/03/30 12:44:51;;;;;;;5.03;2.10;;;14.70;1.00;;;;;;5066235;28;20731;-88
2023/03/30 12:47:32;;;;;;;6.85;2.60;;;14.60;52.30;;;;;;5056190;28;20461;-86
2023/03/30 12:50:07;;;;;;;7.40;2.80;;;14.50;99.90;;;;;;5068084;28;20388;-88
2023/03/30 12:52:46;;;;;;;4.50;2.40;;;14.70;68.30;;;;;;5074016;28;20402;-87
2023/03/30 12:55:28;;;;;;;5.75;2.13;;;14.70;10.30;;;;;;5059295;28;20824;-87
2023/03/30 12:58:25;;;;;;;4.32;2.25;;;14.90;1.00;;;;;;5063726;28;20479;-87
2023/03/30 13:01:09;;;;;;;3.67;2.10;;;15.10;1.00;;;;;;5052235;28;20409;-86
2023/03/30 13:03:41;;;;;;;7.30;2.55;;;15.20;1.00;;;;;;5050690;28;20379;-86
2023/03/30 13:06:29;;;;;;;6.38;2.30;;;15.30;99.90;;;;;;5056910;28;20376;-86
2023/03/30 13:09:16;;;;;;;3.67;1.73;;;15.50;99.90;;;;;;5077410;28;20423;-85